sensor_id;sensor_type;location;lat;lon;timestamp;temperature;humidity
8611;DHT22;4343;53.648;10.098;2024-01-30T00:01:54;4.00;99.90
8611;DHT22;4343;53.648;10.098;2024-01-30T00:04:19;4.00;99.90
8611;DHT22;4343;53.648;10.098;2024-01-30T00:06:44;4.00;99.90
8611;DHT22;4343;53.648;10.098;2024-01-30T00:09:10;4.00;99.90
8611;DHT22;4343;53.648;10.098;2024-01-30T00:11:36;4.00;99.90
8611;DHT22;4343;53.648;10.098;2024-01-30T00:14:02;4.00;99.90
8611;DHT22;4343;53.648;10.098;2024-01-30T00:16:28;4.00;99.90
8611;DHT22;4343;53.648;10.098;2024-01-30T00:18:54;4.00;99.90
8611;DHT22;4343;53.648;10.098;2024-01-30T00:21:20;4.00;99.90
8611;DHT22;4343;53.648;10.098;2024-01-30T00:23:45;4.00;99.90
8611;DHT22;4343;53.648;10.098;2024-01-30T00:26:11;3.90;99.90
8611;DHT22;4343;53.648;10.098;2024-01-30T00:28:40;3.90;99.90
8611;DHT22;4343;53.648;10.098;2024-01-30T00:31:06;3.90;99.90
8611;DHT22;4343;53.648;10.098;2024-01-30T00:33:31;3.90;99.90
8611;DHT22;4343;53.648;10.098;2024-01-30T00:35:57;3.90;99.90
8611;DHT22;4343;53.648;10.098;2024-01-30T00:38:22;4.00;99.90
8611;DHT22;4343;53.648;10.098;2024-01-30T00:40:48;3.90;99.90
8611;DHT22;4343;53.648;10.098;2024-01-30T00:43:13;3.90;99.90
8611;DHT22;4343;53.648;10.098;2024-01-30T00:45:39;4.00;99.90
8611;DHT22;4343;53.648;10.098;2024-01-30T00:48:04;3.90;99.90
8611;DHT22;4343;53.648;10.098;2024-01-30T00:50:30;3.90;99.90
8611;DHT22;4343;53.648;10.098;2024-01-30T00:52:55;3.90;99.90
8611;DHT22;4343;53.648;10.098;2024-01-30T00:55:20;3.90;99.90
8611;DHT22;4343;53.648;10.098;2024-01-30T00:57:46;3.90;99.90
8611;DHT22;4343;53.648;10.098;2024-01-30T01:00:12;3.90;99.90
8611;DHT22;4343;53.648;10.098;2024-01-30T01:02:38;3.90;99.90
8611;DHT22;4343;53.648;10.098;2024-01-30T01:05:04;3.90;99.90
8611;DHT22;4343;53.648;10.098;2024-01-30T01:07:30;3.90;99.90
8611;DHT22;4343;53.648;10.098;2024-01-30T01:09:55;3.90;99.90
8611;DHT22;4343;53.648;10.098;2024-01-30T01:12:21;3.90;99.90
8611;DHT22;4343;53.648;10.098;2024-01-30T01:14:46;3.90;99.90
8611;DHT22;4343;53.648;10.098;2024-01-30T01:17:12;3.90;99.90
8611;DHT22;4343;53.648;10.098;2024-01-30T01:19:37;3.90;99.90
8611;DHT22;4343;53.648;10.098;2024-01-30T01:22:03;3.80;99.90
8611;DHT22;4343;53.648;10.098;2024-01-30T01:24:30;3.80;99.90
8611;DHT22;4343;53.648;10.098;2024-01-30T01:26:56;3.80;99.90
8611;DHT22;4343;53.648;10.098;2024-01-30T01:29:22;3.80;99.90
8611;DHT22;4343;53.648;10.098;2024-01-30T01:31:54;3.80;99.90
8611;DHT22;4343;53.648;10.098;2024-01-30T01:34:19;3.80;99.90
8611;DHT22;4343;53.648;10.098;2024-01-30T01:36:45;3.80;99.90
8611;DHT22;4343;53.648;10.098;2024-01-30T01:39:10;3.80;99.90
8611;DHT22;4343;53.648;10.098;2024-01-30T01:41:36;3.80;99.90
8611;DHT22;4343;53.648;10.098;2024-01-30T01:44:01;3.80;99.90
8611;DHT22;4343;53.648;10.098;2024-01-30T01:46:27;3.80;99.90
8611;DHT22;4343;53.648;10.098;2024-01-30T01:48:55;3.80;99.90
8611;DHT22;4343;53.648;10.098;2024-01-30T01:51:21;3.80;99.90
8611;DHT22;4343;53.648;10.098;2024-01-30T01:53:47;3.80;99.90
8611;DHT22;4343;53.648;10.098;2024-01-30T01:56:12;3.80;99.90
8611;DHT22;4343;53.648;10.098;2024-01-30T01:58:38;3.80;99.90
8611;DHT22;4343;53.648;10.098;2024-01-30T02:01:03;3.80;99.90
8611;DHT22;4343;53.648;10.098;2024-01-30T02:03:30;3.70;99.90
8611;DHT22;4343;53.648;10.098;2024-01-30T02:05:55;3.70;99.90
8611;DHT22;4343;53.648;10.098;2024-01-30T02:08:21;3.70;99.90
8611;DHT22;4343;53.648;10.098;2024-01-30T02:10:47;3.70;99.90
8611;DHT22;4343;53.648;10.098;2024-01-30T02:13:12;3.80;99.90
8611;DHT22;4343;53.648;10.098;2024-01-30T02:15:38;3.70;99.90
8611;DHT22;4343;53.648;10.098;2024-01-30T02:18:03;3.80;99.90
8611;DHT22;4343;53.648;10.098;2024-01-30T02:20:29;3.80;99.90
8611;DHT22;4343;53.648;10.098;2024-01-30T02:22:55;3.80;99.90
8611;DHT22;4343;53.648;10.098;2024-01-30T02:25:29;3.80;99.90
8611;DHT22;4343;53.648;10.098;2024-01-30T02:27:55;3.80;99.90
8611;DHT22;4343;53.648;10.098;2024-01-30T02:30:20;3.70;99.90
8611;DHT22;4343;53.648;10.098;2024-01-30T02:32:46;3.80;99.90
8611;DHT22;4343;53.648;10.098;2024-01-30T02:35:11;3.70;99.90
8611;DHT22;4343;53.648;10.098;2024-01-30T02:37:37;3.80;99.90
8611;DHT22;4343;53.648;10.098;2024-01-30T02:40:02;3.80;99.90
8611;DHT22;4343;53.648;10.098;2024-01-30T02:42:28;3.80;99.90
8611;DHT22;4343;53.648;10.098;2024-01-30T02:44:53;3.80;99.90
8611;DHT22;4343;53.648;10.098;2024-01-30T02:47:19;3.80;99.90
8611;DHT22;4343;53.648;10.098;2024-01-30T02:49:44;3.80;99.90
8611;DHT22;4343;53.648;10.098;2024-01-30T02:52:10;3.80;99.90
8611;DHT22;4343;53.648;10.098;2024-01-30T02:54:35;3.80;99.90
8611;DHT22;4343;53.648;10.098;2024-01-30T02:57:00;3.80;99.90
8611;DHT22;4343;53.648;10.098;2024-01-30T02:59:26;3.80;99.90
8611;DHT22;4343;53.648;10.098;2024-01-30T03:01:51;3.80;99.90
8611;DHT22;4343;53.648;10.098;2024-01-30T03:04:17;3.80;99.90
8611;DHT22;4343;53.648;10.098;2024-01-30T03:06:45;3.80;99.90
8611;DHT22;4343;53.648;10.098;2024-01-30T03:09:12;3.80;99.90
8611;DHT22;4343;53.648;10.098;2024-01-30T03:11:37;3.80;99.90
8611;DHT22;4343;53.648;10.098;2024-01-30T03:14:03;3.80;99.90
8611;DHT22;4343;53.648;10.098;2024-01-30T03:16:29;3.80;99.90
8611;DHT22;4343;53.648;10.098;2024-01-30T03:18:55;3.80;99.90
8611;DHT22;4343;53.648;10.098;2024-01-30T03:21:20;3.80;99.90
8611;DHT22;4343;53.648;10.098;2024-01-30T03:23:45;3.80;99.90
8611;DHT22;4343;53.648;10.098;2024-01-30T03:26:11;3.70;99.90
8611;DHT22;4343;53.648;10.098;2024-01-30T03:28:37;3.70;99.90
8611;DHT22;4343;53.648;10.098;2024-01-30T03:31:03;3.70;99.90
8611;DHT22;4343;53.648;10.098;2024-01-30T03:33:28;3.70;99.90
8611;DHT22;4343;53.648;10.098;2024-01-30T03:35:54;3.70;99.90
8611;DHT22;4343;53.648;10.098;2024-01-30T03:38:19;3.70;99.90
8611;DHT22;4343;53.648;10.098;2024-01-30T03:40:45;3.70;99.90
8611;DHT22;4343;53.648;10.098;2024-01-30T03:43:11;3.70;99.90
8611;DHT22;4343;53.648;10.098;2024-01-30T03:45:36;3.60;99.90
8611;DHT22;4343;53.648;10.098;2024-01-30T03:48:02;3.60;99.90
8611;DHT22;4343;53.648;10.098;2024-01-30T03:50:27;3.70;99.90
8611;DHT22;4343;53.648;10.098;2024-01-30T03:52:53;3.60;99.90
8611;DHT22;4343;53.648;10.098;2024-01-30T03:55:18;3.60;99.90
8611;DHT22;4343;53.648;10.098;2024-01-30T03:57:44;3.60;99.90
8611;DHT22;4343;53.648;10.098;2024-01-30T04:00:09;3.60;99.90
8611;DHT22;4343;53.648;10.098;2024-01-30T04:02:35;3.60;99.90
8611;DHT22;4343;53.648;10.098;2024-01-30T04:05:00;3.60;99.90
8611;DHT22;4343;53.648;10.098;2024-01-30T04:07:26;3.60;99.90
8611;DHT22;4343;53.648;10.098;2024-01-30T04:09:51;3.50;99.90
8611;DHT22;4343;53.648;10.098;2024-01-30T04:12:17;3.60;99.90
8611;DHT22;4343;53.648;10.098;2024-01-30T04:14:42;3.60;99.90
8611;DHT22;4343;53.648;10.098;2024-01-30T04:17:08;3.60;99.90
8611;DHT22;4343;53.648;10.098;2024-01-30T04:19:36;3.60;99.90
8611;DHT22;4343;53.648;10.098;2024-01-30T04:22:02;3.50;99.90
8611;DHT22;4343;53.648;10.098;2024-01-30T04:24:27;3.60;99.90
8611;DHT22;4343;53.648;10.098;2024-01-30T04:26:53;3.60;99.90
8611;DHT22;4343;53.648;10.098;2024-01-30T04:29:18;3.60;99.90
8611;DHT22;4343;53.648;10.098;2024-01-30T04:31:44;3.60;99.90
8611;DHT22;4343;53.648;10.098;2024-01-30T04:34:10;3.50;99.90
8611;DHT22;4343;53.648;10.098;2024-01-30T04:36:35;3.50;99.90
8611;DHT22;4343;53.648;10.098;2024-01-30T04:39:01;3.50;99.90
8611;DHT22;4343;53.648;10.098;2024-01-30T04:41:26;3.50;99.90
8611;DHT22;4343;53.648;10.098;2024-01-30T04:43:56;3.50;99.90
8611;DHT22;4343;53.648;10.098;2024-01-30T04:46:22;3.50;99.90
8611;DHT22;4343;53.648;10.098;2024-01-30T04:48:47;3.50;99.90
8611;DHT22;4343;53.648;10.098;2024-01-30T04:51:12;3.40;99.90
8611;DHT22;4343;53.648;10.098;2024-01-30T04:53:38;3.40;99.90
8611;DHT22;4343;53.648;10.098;2024-01-30T04:56:05;3.40;99.90
8611;DHT22;4343;53.648;10.098;2024-01-30T04:58:30;3.40;99.90
8611;DHT22;4343;53.648;10.098;2024-01-30T05:00:56;3.40;99.90
8611;DHT22;4343;53.648;10.098;2024-01-30T05:03:22;3.40;99.90
8611;DHT22;4343;53.648;10.098;2024-01-30T05:05:48;3.40;99.90
8611;DHT22;4343;53.648;10.098;2024-01-30T05:08:14;3.40;99.90
8611;DHT22;4343;53.648;10.098;2024-01-30T05:10:40;3.40;99.90
8611;DHT22;4343;53.648;10.098;2024-01-30T05:13:05;3.40;99.90
8611;DHT22;4343;53.648;10.098;2024-01-30T05:15:30;3.40;99.90
8611;DHT22;4343;53.648;10.098;2024-01-30T05:17:56;3.40;99.90
8611;DHT22;4343;53.648;10.098;2024-01-30T05:20:21;3.40;99.90
8611;DHT22;4343;53.648;10.098;2024-01-30T05:22:47;3.40;99.90
8611;DHT22;4343;53.648;10.098;2024-01-30T05:25:12;3.40;99.90
8611;DHT22;4343;53.648;10.098;2024-01-30T05:27:38;3.40;99.90
8611;DHT22;4343;53.648;10.098;2024-01-30T05:30:05;3.40;99.90
8611;DHT22;4343;53.648;10.098;2024-01-30T05:32:31;3.40;99.90
8611;DHT22;4343;53.648;10.098;2024-01-30T05:34:57;3.40;99.90
8611;DHT22;4343;53.648;10.098;2024-01-30T05:37:22;3.40;99.90
8611;DHT22;4343;53.648;10.098;2024-01-30T05:39:47;3.40;99.90
8611;DHT22;4343;53.648;10.098;2024-01-30T05:42:13;3.40;99.90
8611;DHT22;4343;53.648;10.098;2024-01-30T05:44:40;3.50;99.90
8611;DHT22;4343;53.648;10.098;2024-01-30T05:47:05;3.40;99.90
8611;DHT22;4343;53.648;10.098;2024-01-30T05:49:31;3.40;99.90
8611;DHT22;4343;53.648;10.098;2024-01-30T05:51:57;3.40;99.90
8611;DHT22;4343;53.648;10.098;2024-01-30T05:54:22;3.50;99.90
8611;DHT22;4343;53.648;10.098;2024-01-30T05:56:47;3.50;99.90
8611;DHT22;4343;53.648;10.098;2024-01-30T05:59:13;3.40;99.90
8611;DHT22;4343;53.648;10.098;2024-01-30T06:01:45;3.50;99.90
8611;DHT22;4343;53.648;10.098;2024-01-30T06:04:10;3.50;99.90
8611;DHT22;4343;53.648;10.098;2024-01-30T06:06:36;3.50;99.90
8611;DHT22;4343;53.648;10.098;2024-01-30T06:09:01;3.50;99.90
8611;DHT22;4343;53.648;10.098;2024-01-30T06:11:26;3.50;99.90
8611;DHT22;4343;53.648;10.098;2024-01-30T06:13:52;3.50;99.90
8611;DHT22;4343;53.648;10.098;2024-01-30T06:16:17;3.50;99.90
8611;DHT22;4343;53.648;10.098;2024-01-30T06:18:45;3.50;99.90
8611;DHT22;4343;53.648;10.098;2024-01-30T06:21:10;3.50;99.90
8611;DHT22;4343;53.648;10.098;2024-01-30T06:23:35;3.60;99.90
8611;DHT22;4343;53.648;10.098;2024-01-30T06:26:01;3.60;99.90
8611;DHT22;4343;53.648;10.098;2024-01-30T06:28:26;3.50;99.90
8611;DHT22;4343;53.648;10.098;2024-01-30T06:30:52;3.60;99.90
8611;DHT22;4343;53.648;10.098;2024-01-30T06:33:17;3.60;99.90
8611;DHT22;4343;53.648;10.098;2024-01-30T06:35:42;3.60;99.90
8611;DHT22;4343;53.648;10.098;2024-01-30T06:38:08;3.60;99.90
8611;DHT22;4343;53.648;10.098;2024-01-30T06:40:34;3.60;99.90
8611;DHT22;4343;53.648;10.098;2024-01-30T06:42:59;3.60;99.90
8611;DHT22;4343;53.648;10.098;2024-01-30T06:45:25;3.70;99.90
8611;DHT22;4343;53.648;10.098;2024-01-30T06:47:50;3.70;99.90
8611;DHT22;4343;53.648;10.098;2024-01-30T06:50:16;3.70;99.90
8611;DHT22;4343;53.648;10.098;2024-01-30T06:52:41;3.70;99.90
8611;DHT22;4343;53.648;10.098;2024-01-30T06:55:07;3.70;99.90
8611;DHT22;4343;53.648;10.098;2024-01-30T06:57:32;3.70;99.90
8611;DHT22;4343;53.648;10.098;2024-01-30T06:59:58;3.80;99.90
8611;DHT22;4343;53.648;10.098;2024-01-30T07:02:23;3.80;99.90
8611;DHT22;4343;53.648;10.098;2024-01-30T07:04:49;3.80;99.90
8611;DHT22;4343;53.648;10.098;2024-01-30T07:07:14;3.80;99.90
8611;DHT22;4343;53.648;10.098;2024-01-30T07:09:40;3.80;99.90
8611;DHT22;4343;53.648;10.098;2024-01-30T07:12:06;3.80;99.90
8611;DHT22;4343;53.648;10.098;2024-01-30T07:14:32;3.80;99.90
8611;DHT22;4343;53.648;10.098;2024-01-30T07:16:57;3.80;99.90
8611;DHT22;4343;53.648;10.098;2024-01-30T07:19:22;3.80;99.90
8611;DHT22;4343;53.648;10.098;2024-01-30T07:21:48;3.90;99.90
8611;DHT22;4343;53.648;10.098;2024-01-30T07:24:13;3.80;99.90
8611;DHT22;4343;53.648;10.098;2024-01-30T07:26:39;3.90;99.90
8611;DHT22;4343;53.648;10.098;2024-01-30T07:29:04;3.80;99.90
8611;DHT22;4343;53.648;10.098;2024-01-30T07:31:30;3.90;99.90
8611;DHT22;4343;53.648;10.098;2024-01-30T07:33:55;3.80;99.90
8611;DHT22;4343;53.648;10.098;2024-01-30T07:36:20;3.80;99.90
8611;DHT22;4343;53.648;10.098;2024-01-30T07:38:46;3.90;99.90
8611;DHT22;4343;53.648;10.098;2024-01-30T07:41:11;3.80;99.90
8611;DHT22;4343;53.648;10.098;2024-01-30T07:43:38;3.90;99.90
8611;DHT22;4343;53.648;10.098;2024-01-30T07:46:03;3.80;99.90
8611;DHT22;4343;53.648;10.098;2024-01-30T07:48:29;3.90;99.90
8611;DHT22;4343;53.648;10.098;2024-01-30T07:50:55;3.90;99.90
8611;DHT22;4343;53.648;10.098;2024-01-30T07:53:20;3.90;99.90
8611;DHT22;4343;53.648;10.098;2024-01-30T07:55:45;3.90;99.90
8611;DHT22;4343;53.648;10.098;2024-01-30T07:58:12;3.90;99.90
8611;DHT22;4343;53.648;10.098;2024-01-30T08:00:37;3.90;99.90
8611;DHT22;4343;53.648;10.098;2024-01-30T08:03:03;3.90;99.90
8611;DHT22;4343;53.648;10.098;2024-01-30T08:05:28;4.00;99.90
8611;DHT22;4343;53.648;10.098;2024-01-30T08:07:54;4.00;99.90
8611;DHT22;4343;53.648;10.098;2024-01-30T08:10:19;4.00;99.90
8611;DHT22;4343;53.648;10.098;2024-01-30T08:12:45;4.00;99.90
8611;DHT22;4343;53.648;10.098;2024-01-30T08:15:11;4.00;99.90
8611;DHT22;4343;53.648;10.098;2024-01-30T08:17:37;4.10;99.90
8611;DHT22;4343;53.648;10.098;2024-01-30T08:20:03;4.10;99.90
8611;DHT22;4343;53.648;10.098;2024-01-30T08:22:30;4.10;99.90
8611;DHT22;4343;53.648;10.098;2024-01-30T08:24:55;4.20;99.90
8611;DHT22;4343;53.648;10.098;2024-01-30T08:27:20;4.20;99.90
8611;DHT22;4343;53.648;10.098;2024-01-30T08:29:46;4.20;99.90
8611;DHT22;4343;53.648;10.098;2024-01-30T08:32:11;4.30;99.90
8611;DHT22;4343;53.648;10.098;2024-01-30T08:34:37;4.30;99.90
8611;DHT22;4343;53.648;10.098;2024-01-30T08:37:02;4.30;99.90
8611;DHT22;4343;53.648;10.098;2024-01-30T08:39:28;4.30;99.90
8611;DHT22;4343;53.648;10.098;2024-01-30T08:41:54;4.40;99.90
8611;DHT22;4343;53.648;10.098;2024-01-30T08:44:19;4.40;99.90
8611;DHT22;4343;53.648;10.098;2024-01-30T08:46:44;4.50;99.90
8611;DHT22;4343;53.648;10.098;2024-01-30T08:49:10;4.50;99.90
8611;DHT22;4343;53.648;10.098;2024-01-30T08:51:38;4.60;99.90
8611;DHT22;4343;53.648;10.098;2024-01-30T08:54:04;4.60;99.90
8611;DHT22;4343;53.648;10.098;2024-01-30T08:56:29;4.70;99.90
8611;DHT22;4343;53.648;10.098;2024-01-30T08:58:55;4.80;99.90
8611;DHT22;4343;53.648;10.098;2024-01-30T09:01:20;4.80;99.90
8611;DHT22;4343;53.648;10.098;2024-01-30T09:03:45;4.90;99.90
8611;DHT22;4343;53.648;10.098;2024-01-30T09:06:12;4.90;99.90
8611;DHT22;4343;53.648;10.098;2024-01-30T09:08:37;5.00;99.90
8611;DHT22;4343;53.648;10.098;2024-01-30T09:11:12;5.10;99.90
8611;DHT22;4343;53.648;10.098;2024-01-30T09:13:38;5.10;99.90
8611;DHT22;4343;53.648;10.098;2024-01-30T09:16:03;5.20;99.90
8611;DHT22;4343;53.648;10.098;2024-01-30T09:18:29;5.20;99.90
8611;DHT22;4343;53.648;10.098;2024-01-30T09:20:54;5.30;99.90
8611;DHT22;4343;53.648;10.098;2024-01-30T09:23:20;5.40;99.90
8611;DHT22;4343;53.648;10.098;2024-01-30T09:25:45;5.50;99.90
8611;DHT22;4343;53.648;10.098;2024-01-30T09:28:11;5.50;99.90
8611;DHT22;4343;53.648;10.098;2024-01-30T09:30:36;5.60;99.90
8611;DHT22;4343;53.648;10.098;2024-01-30T09:33:02;5.60;99.90
8611;DHT22;4343;53.648;10.098;2024-01-30T09:35:27;5.60;99.90
8611;DHT22;4343;53.648;10.098;2024-01-30T09:37:53;5.70;99.90
8611;DHT22;4343;53.648;10.098;2024-01-30T09:40:18;5.80;99.90
8611;DHT22;4343;53.648;10.098;2024-01-30T09:42:49;5.80;99.90
8611;DHT22;4343;53.648;10.098;2024-01-30T09:45:15;5.90;99.90
8611;DHT22;4343;53.648;10.098;2024-01-30T09:47:42;5.90;99.90
8611;DHT22;4343;53.648;10.098;2024-01-30T09:50:09;6.00;99.90
8611;DHT22;4343;53.648;10.098;2024-01-30T09:52:34;6.00;99.90
8611;DHT22;4343;53.648;10.098;2024-01-30T09:55:00;6.10;99.90
8611;DHT22;4343;53.648;10.098;2024-01-30T09:57:26;6.20;99.90
8611;DHT22;4343;53.648;10.098;2024-01-30T09:59:52;6.20;99.90
8611;DHT22;4343;53.648;10.098;2024-01-30T10:02:19;6.20;99.90
8611;DHT22;4343;53.648;10.098;2024-01-30T10:04:47;6.30;99.90
8611;DHT22;4343;53.648;10.098;2024-01-30T10:07:12;6.30;99.90
8611;DHT22;4343;53.648;10.098;2024-01-30T10:09:39;6.30;99.90
8611;DHT22;4343;53.648;10.098;2024-01-30T10:12:05;6.40;99.90
8611;DHT22;4343;53.648;10.098;2024-01-30T10:14:31;6.40;99.90
8611;DHT22;4343;53.648;10.098;2024-01-30T10:16:57;6.50;99.90
8611;DHT22;4343;53.648;10.098;2024-01-30T10:19:22;6.50;99.90
8611;DHT22;4343;53.648;10.098;2024-01-30T10:21:48;6.60;99.90
8611;DHT22;4343;53.648;10.098;2024-01-30T10:24:13;6.60;99.90
8611;DHT22;4343;53.648;10.098;2024-01-30T10:26:39;6.70;99.90
8611;DHT22;4343;53.648;10.098;2024-01-30T10:29:05;6.70;99.90
8611;DHT22;4343;53.648;10.098;2024-01-30T10:31:30;6.70;99.90
8611;DHT22;4343;53.648;10.098;2024-01-30T10:33:56;6.80;99.90
8611;DHT22;4343;53.648;10.098;2024-01-30T10:36:21;6.90;99.90
8611;DHT22;4343;53.648;10.098;2024-01-30T10:38:50;6.90;99.90
8611;DHT22;4343;53.648;10.098;2024-01-30T10:41:16;6.90;99.90
8611;DHT22;4343;53.648;10.098;2024-01-30T10:43:45;7.00;99.90
8611;DHT22;4343;53.648;10.098;2024-01-30T10:46:18;7.00;99.90
8611;DHT22;4343;53.648;10.098;2024-01-30T10:48:46;7.10;99.90
8611;DHT22;4343;53.648;10.098;2024-01-30T10:51:14;7.10;99.90
8611;DHT22;4343;53.648;10.098;2024-01-30T10:53:40;7.10;99.90
8611;DHT22;4343;53.648;10.098;2024-01-30T10:56:06;7.10;99.90
8611;DHT22;4343;53.648;10.098;2024-01-30T10:58:33;7.20;99.90
8611;DHT22;4343;53.648;10.098;2024-01-30T11:00:58;7.20;99.90
8611;DHT22;4343;53.648;10.098;2024-01-30T11:03:24;7.30;99.90
8611;DHT22;4343;53.648;10.098;2024-01-30T11:05:49;7.40;99.90
8611;DHT22;4343;53.648;10.098;2024-01-30T11:08:22;7.40;99.90
8611;DHT22;4343;53.648;10.098;2024-01-30T11:10:48;7.50;99.90
8611;DHT22;4343;53.648;10.098;2024-01-30T11:13:14;7.50;99.90
8611;DHT22;4343;53.648;10.098;2024-01-30T11:15:40;7.50;99.90
8611;DHT22;4343;53.648;10.098;2024-01-30T11:18:05;7.60;99.90
8611;DHT22;4343;53.648;10.098;2024-01-30T11:20:31;7.60;99.90
8611;DHT22;4343;53.648;10.098;2024-01-30T11:22:57;7.60;99.90
8611;DHT22;4343;53.648;10.098;2024-01-30T11:25:23;7.70;99.90
8611;DHT22;4343;53.648;10.098;2024-01-30T11:27:50;7.70;99.90
8611;DHT22;4343;53.648;10.098;2024-01-30T11:30:23;7.80;99.90
8611;DHT22;4343;53.648;10.098;2024-01-30T11:35:23;7.80;99.90
8611;DHT22;4343;53.648;10.098;2024-01-30T11:37:49;7.80;99.90
8611;DHT22;4343;53.648;10.098;2024-01-30T11:40:15;7.90;99.90
8611;DHT22;4343;53.648;10.098;2024-01-30T11:42:41;7.90;99.90
8611;DHT22;4343;53.648;10.098;2024-01-30T11:45:07;7.90;99.90
8611;DHT22;4343;53.648;10.098;2024-01-30T11:47:34;7.90;99.90
8611;DHT22;4343;53.648;10.098;2024-01-30T11:50:00;8.00;99.90
8611;DHT22;4343;53.648;10.098;2024-01-30T11:52:25;8.00;99.90
8611;DHT22;4343;53.648;10.098;2024-01-30T11:54:51;8.00;99.90
8611;DHT22;4343;53.648;10.098;2024-01-30T11:57:17;8.00;99.90
8611;DHT22;4343;53.648;10.098;2024-01-30T11:59:42;8.00;99.90
8611;DHT22;4343;53.648;10.098;2024-01-30T12:02:07;8.00;99.90
8611;DHT22;4343;53.648;10.098;2024-01-30T12:04:33;8.10;99.90
8611;DHT22;4343;53.648;10.098;2024-01-30T12:06:58;8.10;99.90
8611;DHT22;4343;53.648;10.098;2024-01-30T12:09:24;8.10;99.90
8611;DHT22;4343;53.648;10.098;2024-01-30T12:11:49;8.00;99.90
8611;DHT22;4343;53.648;10.098;2024-01-30T12:14:16;8.10;99.90
8611;DHT22;4343;53.648;10.098;2024-01-30T12:16:42;8.00;99.90
8611;DHT22;4343;53.648;10.098;2024-01-30T12:19:07;8.10;99.90
8611;DHT22;4343;53.648;10.098;2024-01-30T12:21:33;8.10;99.90
8611;DHT22;4343;53.648;10.098;2024-01-30T12:23:59;8.10;99.90
8611;DHT22;4343;53.648;10.098;2024-01-30T12:26:25;8.10;99.90
8611;DHT22;4343;53.648;10.098;2024-01-30T12:28:53;8.10;99.90
8611;DHT22;4343;53.648;10.098;2024-01-30T12:31:24;8.10;99.90
8611;DHT22;4343;53.648;10.098;2024-01-30T12:33:50;8.10;99.90
8611;DHT22;4343;53.648;10.098;2024-01-30T12:36:16;8.10;99.90
8611;DHT22;4343;53.648;10.098;2024-01-30T12:38:41;8.20;99.90
8611;DHT22;4343;53.648;10.098;2024-01-30T12:41:07;8.10;99.90
8611;DHT22;4343;53.648;10.098;2024-01-30T12:43:33;8.20;99.90
8611;DHT22;4343;53.648;10.098;2024-01-30T12:45:59;8.20;99.90
8611;DHT22;4343;53.648;10.098;2024-01-30T12:48:26;8.20;99.90
8611;DHT22;4343;53.648;10.098;2024-01-30T12:50:54;8.20;99.90
8611;DHT22;4343;53.648;10.098;2024-01-30T12:53:19;8.20;99.90
8611;DHT22;4343;53.648;10.098;2024-01-30T12:55:45;8.20;99.90
8611;DHT22;4343;53.648;10.098;2024-01-30T12:58:10;8.20;99.90
8611;DHT22;4343;53.648;10.098;2024-01-30T13:00:36;8.20;99.90
8611;DHT22;4343;53.648;10.098;2024-01-30T13:03:01;8.20;99.90
8611;DHT22;4343;53.648;10.098;2024-01-30T13:05:27;8.20;99.90
8611;DHT22;4343;53.648;10.098;2024-01-30T13:07:52;8.20;99.90
8611;DHT22;4343;53.648;10.098;2024-01-30T13:10:19;8.30;99.90
8611;DHT22;4343;53.648;10.098;2024-01-30T13:12:44;8.30;99.90
8611;DHT22;4343;53.648;10.098;2024-01-30T13:15:09;8.30;99.90
8611;DHT22;4343;53.648;10.098;2024-01-30T13:17:36;8.40;99.90
8611;DHT22;4343;53.648;10.098;2024-01-30T13:20:02;8.40;99.90
8611;DHT22;4343;53.648;10.098;2024-01-30T13:22:29;8.40;99.90
8611;DHT22;4343;53.648;10.098;2024-01-30T13:24:54;8.40;99.90
8611;DHT22;4343;53.648;10.098;2024-01-30T13:27:20;8.40;99.90
8611;DHT22;4343;53.648;10.098;2024-01-30T13:29:46;8.50;99.90
8611;DHT22;4343;53.648;10.098;2024-01-30T13:32:11;8.50;99.90
8611;DHT22;4343;53.648;10.098;2024-01-30T13:34:36;8.50;99.90
8611;DHT22;4343;53.648;10.098;2024-01-30T13:37:02;8.50;99.90
8611;DHT22;4343;53.648;10.098;2024-01-30T13:39:27;8.60;99.90
8611;DHT22;4343;53.648;10.098;2024-01-30T13:41:54;8.60;99.90
8611;DHT22;4343;53.648;10.098;2024-01-30T13:44:19;8.60;99.90
8611;DHT22;4343;53.648;10.098;2024-01-30T13:46:46;8.60;99.90
8611;DHT22;4343;53.648;10.098;2024-01-30T13:49:11;8.60;99.90
8611;DHT22;4343;53.648;10.098;2024-01-30T13:51:37;8.60;99.90
8611;DHT22;4343;53.648;10.098;2024-01-30T13:54:02;8.60;99.90
8611;DHT22;4343;53.648;10.098;2024-01-30T13:56:28;8.70;99.90
8611;DHT22;4343;53.648;10.098;2024-01-30T13:58:53;8.60;99.90
8611;DHT22;4343;53.648;10.098;2024-01-30T14:01:20;8.70;99.90
8611;DHT22;4343;53.648;10.098;2024-01-30T14:03:46;8.70;99.90
8611;DHT22;4343;53.648;10.098;2024-01-30T14:06:11;8.70;99.90
8611;DHT22;4343;53.648;10.098;2024-01-30T14:08:37;8.70;99.90
8611;DHT22;4343;53.648;10.098;2024-01-30T14:11:02;8.70;99.90
8611;DHT22;4343;53.648;10.098;2024-01-30T14:13:28;8.70;99.90
8611;DHT22;4343;53.648;10.098;2024-01-30T14:15:54;8.70;99.90
8611;DHT22;4343;53.648;10.098;2024-01-30T14:18:19;8.70;99.90
8611;DHT22;4343;53.648;10.098;2024-01-30T14:20:45;8.70;99.90
8611;DHT22;4343;53.648;10.098;2024-01-30T14:23:11;8.70;99.90
8611;DHT22;4343;53.648;10.098;2024-01-30T14:25:36;8.70;99.90
8611;DHT22;4343;53.648;10.098;2024-01-30T14:28:01;8.80;99.90
8611;DHT22;4343;53.648;10.098;2024-01-30T14:30:27;8.80;99.90
8611;DHT22;4343;53.648;10.098;2024-01-30T14:32:52;8.80;99.90
8611;DHT22;4343;53.648;10.098;2024-01-30T14:35:18;8.80;99.90
8611;DHT22;4343;53.648;10.098;2024-01-30T14:37:44;8.80;99.90
8611;DHT22;4343;53.648;10.098;2024-01-30T14:40:10;8.80;99.90
8611;DHT22;4343;53.648;10.098;2024-01-30T14:42:35;8.90;99.90
8611;DHT22;4343;53.648;10.098;2024-01-30T14:45:03;8.90;99.90
8611;DHT22;4343;53.648;10.098;2024-01-30T14:47:28;8.90;99.90
8611;DHT22;4343;53.648;10.098;2024-01-30T14:49:54;8.90;99.90
8611;DHT22;4343;53.648;10.098;2024-01-30T14:52:19;8.90;99.90
8611;DHT22;4343;53.648;10.098;2024-01-30T14:54:45;8.90;99.90
8611;DHT22;4343;53.648;10.098;2024-01-30T14:57:10;9.00;99.90
8611;DHT22;4343;53.648;10.098;2024-01-30T14:59:36;9.00;99.90
8611;DHT22;4343;53.648;10.098;2024-01-30T15:02:01;9.00;99.90
8611;DHT22;4343;53.648;10.098;2024-01-30T15:04:27;9.00;99.90
8611;DHT22;4343;53.648;10.098;2024-01-30T15:06:52;9.00;99.90
8611;DHT22;4343;53.648;10.098;2024-01-30T15:09:18;9.00;99.90
8611;DHT22;4343;53.648;10.098;2024-01-30T15:11:46;9.10;99.90
8611;DHT22;4343;53.648;10.098;2024-01-30T15:14:11;9.00;99.90
8611;DHT22;4343;53.648;10.098;2024-01-30T15:16:37;9.10;99.90
8611;DHT22;4343;53.648;10.098;2024-01-30T15:19:03;9.10;99.90
8611;DHT22;4343;53.648;10.098;2024-01-30T15:21:30;9.10;99.90
8611;DHT22;4343;53.648;10.098;2024-01-30T15:23:55;9.10;99.90
8611;DHT22;4343;53.648;10.098;2024-01-30T15:26:21;9.10;99.90
8611;DHT22;4343;53.648;10.098;2024-01-30T15:28:46;9.10;99.90
8611;DHT22;4343;53.648;10.098;2024-01-30T15:31:12;9.10;99.90
8611;DHT22;4343;53.648;10.098;2024-01-30T15:33:37;9.10;99.90
8611;DHT22;4343;53.648;10.098;2024-01-30T15:36:03;9.10;99.90
8611;DHT22;4343;53.648;10.098;2024-01-30T15:38:29;9.10;99.90
8611;DHT22;4343;53.648;10.098;2024-01-30T15:40:54;9.10;99.90
8611;DHT22;4343;53.648;10.098;2024-01-30T15:43:20;9.20;99.90
8611;DHT22;4343;53.648;10.098;2024-01-30T15:45:45;9.20;99.90
8611;DHT22;4343;53.648;10.098;2024-01-30T15:48:11;9.20;99.90
8611;DHT22;4343;53.648;10.098;2024-01-30T15:50:37;9.20;99.90
8611;DHT22;4343;53.648;10.098;2024-01-30T15:53:03;9.20;99.90
8611;DHT22;4343;53.648;10.098;2024-01-30T15:55:28;9.20;99.90